Divide, Montana
Current Conditions -  °F | °C
As of 9:53 AM on Sunday 21 Dec 2014 (Local Time) from KBTM Reporting Station
Light Rain Light Rain  
Wind Chill: 33°   Ceiling: 3700
Heat Index: 33°   Visibility: 10mi
Dew Point: 32°   Wind: 0mph
Humidity: 96%   Direction: NA
Pressure: 29.58"   Gusts: NA
Location:  45.75°N, 112.74°W
Report Text: KBTM 211653Z AUTO 00000KT 10SM -RA FEW020 BKN037 OVC047 01/00 A2958 RMK AO2 UPB36E42RAB42SNE36 SLP033 P0002 T00060000
Loading
Personal Weather Stations






























Interactive Weather Map New forecast layout! Learn more

10-Day Weather Forecast

Advertisements
Track Severe Weather on mobile